Time;durP1;ratioP1;P1;durP2;ratioP2;P2;SDS_P1;SDS_P2;PMS_P1;PMS_P2;Temp;Humidity;BMP_temperature;BMP_pressure;BME280_temperature;BME280_humidity;BME280_pressure;Samples;Min_cycle;Max_cycle;Signal;HPM_P1;HPM_P2
2021/07/09 00:01:28;;;;;;;27.65;25.35;;;;;;;24.03;72.00;96657.63;1665720;85;21369;-80
2021/07/09 00:03:55;;;;;;;27.95;25.37;;;;;;;24.00;72.07;96648.07;1621582;85;21008;-80
2021/07/09 00:06:21;;;;;;;26.70;24.30;;;;;;;23.97;72.29;96641.95;1667633;85;21005;-81
2021/07/09 00:08:48;;;;;;;26.73;24.52;;;;;;;23.93;72.47;96645.14;1640304;85;20995;-80
2021/07/09 00:11:14;;;;;;;25.65;23.27;;;;;;;23.93;72.75;96647.79;1658502;84;20956;-79
2021/07/09 00:13:40;;;;;;;25.62;23.25;;;;;;;23.87;72.78;96659.42;1661160;85;21011;-80
2021/07/09 00:16:06;;;;;;;29.52;26.68;;;;;;;23.84;73.08;96678.52;1671268;85;20965;-80
2021/07/09 00:18:32;;;;;;;31.00;28.07;;;;;;;23.75;73.13;96692.00;1659331;85;20956;-79
2021/07/09 00:20:58;;;;;;;29.02;26.52;;;;;;;23.70;73.59;96703.13;1663849;85;21020;-80
2021/07/09 00:23:24;;;;;;;29.85;27.07;;;;;;;23.63;73.65;96712.12;1663657;85;21105;-80
2021/07/09 00:25:50;;;;;;;30.32;27.42;;;;;;;23.61;74.00;96711.58;1662998;84;21427;-80
2021/07/09 00:28:16;;;;;;;29.82;27.15;;;;;;;23.56;74.00;96710.17;1661442;85;21350;-81
2021/07/09 00:30:41;;;;;;;28.47;25.97;;;;;;;23.52;74.04;96713.59;1663787;85;21037;-82
2021/07/09 00:33:08;;;;;;;32.88;29.90;;;;;;;23.52;74.38;96717.58;1660385;85;20997;-82
2021/07/09 00:35:33;;;;;;;29.23;26.40;;;;;;;23.49;74.32;96706.16;1658844;85;21479;-82
2021/07/09 00:37:59;;;;;;;33.88;30.72;;;;;;;23.46;74.49;96696.06;1658556;85;21440;-81
2021/07/09 00:40:25;;;;;;;34.45;31.10;;;;;;;23.45;74.72;96693.14;1662915;85;21003;-82
2021/07/09 00:42:51;;;;;;;30.37;27.62;;;;;;;23.47;74.75;96698.98;1659277;85;21003;-81
2021/07/09 00:45:17;;;;;;;29.75;26.90;;;;;;;23.48;74.61;96691.30;1657137;85;21113;-81
2021/07/09 00:47:44;;;;;;;32.17;29.18;;;;;;;23.49;74.70;96680.97;1656066;85;21401;-81
2021/07/09 00:50:11;;;;;;;35.03;31.50;;;;;;;23.51;74.80;96673.02;1661604;85;21007;-82
2021/07/09 00:52:36;;;;;;;34.58;31.30;;;;;;;23.53;74.72;96670.91;1654524;85;21042;-82
2021/07/09 00:55:04;;;;;;;34.25;30.90;;;;;;;23.53;74.74;96674.88;1664762;85;21028;-81
2021/07/09 00:57:29;;;;;;;35.60;32.20;;;;;;;23.45;74.78;96675.91;1663447;85;20987;-80
2021/07/09 00:59:55;;;;;;;29.95;27.05;;;;;;;23.40;75.05;96682.48;1656268;85;21463;-80
2021/07/09 01:02:23;;;;;;;27.75;25.25;;;;;;;23.41;74.92;96670.82;1638923;85;20943;-80
2021/07/09 01:04:56;;;;;;;30.72;27.77;;;;;;;23.39;74.93;96657.82;1637976;85;20959;-81
2021/07/09 01:07:17;;;;;;;31.42;28.52;;;;;;;23.37;74.93;96648.00;1665910;85;21079;-81
2021/07/09 01:09:43;;;;;;;34.05;30.72;;;;;;;23.36;74.90;96651.18;1663239;85;21369;-81
2021/07/09 01:12:09;;;;;;;30.05;27.27;;;;;;;23.34;74.97;96641.36;1663066;85;21012;-79
2021/07/09 01:14:35;;;;;;;30.52;27.62;;;;;;;23.30;75.12;96638.16;1661090;85;21068;-80
2021/07/09 01:17:00;;;;;;;28.87;26.27;;;;;;;23.27;75.13;96630.20;1645418;85;21023;-80
2021/07/09 01:19:26;;;;;;;27.22;24.77;;;;;;;23.26;75.14;96631.23;1661499;85;21008;-80
2021/07/09 01:21:52;;;;;;;30.17;27.37;;;;;;;23.29;75.30;96634.72;1659195;85;21009;-80
2021/07/09 01:24:17;;;;;;;29.30;26.65;;;;;;;23.25;75.35;96637.58;1658332;85;21027;-80
2021/07/09 01:26:43;;;;;;;26.90;24.40;;;;;;;23.26;75.48;96626.45;1658268;85;21400;-81
2021/07/09 01:29:09;;;;;;;26.17;23.83;;;;;;;23.23;75.50;96609.73;1609810;87;20976;-80
2021/07/09 01:31:35;;;;;;;25.30;23.10;;;;;;;23.17;75.52;96611.57;1630216;86;20963;-81
2021/07/09 01:34:04;;;;;;;24.12;22.13;;;;;;;23.14;75.54;96604.14;1645163;86;21038;-79
2021/07/09 01:36:29;;;;;;;24.82;22.52;;;;;;;23.14;75.68;96595.39;1652925;86;21430;-80
2021/07/09 01:38:55;;;;;;;23.12;21.02;;;;;;;23.13;75.57;96591.14;1624267;86;21042;-80
2021/07/09 01:41:21;;;;;;;26.07;23.87;;;;;;;23.10;75.59;96586.33;1647000;86;21081;-80
2021/07/09 01:43:47;;;;;;;25.48;23.27;;;;;;;23.06;75.55;96583.40;1648903;86;21062;-79
2021/07/09 01:46:13;;;;;;;24.72;22.62;;;;;;;23.01;75.61;96584.17;1650810;86;21046;-80
2021/07/09 01:48:39;;;;;;;26.73;24.43;;;;;;;22.98;75.68;96582.56;1643533;86;21062;-80
2021/07/09 01:51:05;;;;;;;29.48;26.75;;;;;;;22.95;75.85;96587.85;1650134;86;21399;-80
2021/07/09 01:53:31;;;;;;;26.75;24.25;;;;;;;22.96;76.17;96583.34;1654146;86;20995;-80
2021/07/09 01:55:56;;;;;;;25.72;23.40;;;;;;;22.98;76.17;96586.02;1624943;87;20992;-80
2021/07/09 01:58:22;;;;;;;26.95;24.55;;;;;;;22.98;76.13;96575.94;1645259;86;20991;-80
2021/07/09 02:00:48;;;;;;;28.70;26.10;;;;;;;22.95;76.03;96579.11;1648655;86;21006;-79
2021/07/09 02:03:14;;;;;;;29.65;26.87;;;;;;;22.91;76.22;96578.00;1630120;87;21407;-80
2021/07/09 02:05:40;;;;;;;26.48;24.15;;;;;;;22.87;76.19;96579.56;1630757;87;20981;-80
2021/07/09 02:08:06;;;;;;;27.58;25.15;;;;;;;22.84;76.40;96580.88;1616664;87;20986;-80
2021/07/09 02:10:36;;;;;;;25.60;23.20;;;;;;;22.83;76.35;96579.81;1634546;87;21311;-80
2021/07/09 02:13:02;;;;;;;25.05;22.75;;;;;;;22.80;76.71;96577.64;1623856;87;20985;-80
2021/07/09 02:15:38;;;;;;;25.20;23.00;;;;;;;22.71;76.72;96572.80;1630317;87;20994;-80
2021/07/09 02:18:04;;;;;;;24.82;22.65;;;;;;;22.69;76.74;96576.23;1631050;87;20964;-80
2021/07/09 02:20:30;;;;;;;24.35;22.25;;;;;;;22.68;76.79;96569.34;1662352;85;21002;-80
2021/07/09 02:22:57;;;;;;;23.47;21.23;;;;;;;22.67;76.92;96565.63;1668071;85;21337;-79
2021/07/09 02:25:23;;;;;;;21.62;19.70;;;;;;;22.65;77.04;96557.14;1663958;85;20976;-79
2021/07/09 02:27:51;;;;;;;20.30;18.55;;;;;;;22.62;77.06;96558.98;1663372;84;20980;-80
2021/07/09 02:30:18;;;;;;;19.80;18.12;;;;;;;22.58;77.11;96557.86;1665497;85;21015;-80
2021/07/09 02:32:45;;;;;;;20.12;18.25;;;;;;;22.54;77.22;96556.25;1668195;85;21047;-79
2021/07/09 02:35:15;;;;;;;19.05;17.37;;;;;;;22.52;77.31;96562.33;1665389;85;21008;-80
2021/07/09 02:37:42;;;;;;;20.02;18.32;;;;;;;22.48;77.22;96559.92;1658764;85;20976;-80
2021/07/09 02:40:09;;;;;;;20.25;18.48;;;;;;;22.45;77.54;96556.43;1658772;85;21413;-80
2021/07/09 02:42:35;;;;;;;19.40;17.75;;;;;;;22.39;77.42;96548.19;1663875;85;21042;-80
2021/07/09 02:45:01;;;;;;;18.75;17.00;;;;;;;22.35;77.46;96555.84;1632017;85;21032;-81
2021/07/09 02:47:26;;;;;;;17.05;15.65;;;;;;;22.32;77.37;96554.23;1660431;85;21480;-79
2021/07/09 02:49:52;;;;;;;17.00;15.32;;;;;;;22.27;77.40;96543.05;1670587;85;21021;-80
2021/07/09 02:52:18;;;;;;;16.80;15.20;;;;;;;22.27;77.24;96551.52;1660804;85;21026;-80
2021/07/09 02:54:45;;;;;;;16.97;15.32;;;;;;;22.22;77.32;96554.13;1664474;85;20999;-79
2021/07/09 02:57:11;;;;;;;17.73;16.23;;;;;;;22.19;77.17;96549.34;1657557;85;21067;-79
2021/07/09 02:59:37;;;;;;;18.25;16.67;;;;;;;22.13;77.42;96541.36;1658602;85;21895;-79
2021/07/09 03:02:03;;;;;;;19.20;17.50;;;;;;;22.05;77.45;96547.62;1651084;85;21130;-80
2021/07/09 03:04:29;;;;;;;17.07;15.65;;;;;;;22.03;77.48;96543.08;1660840;85;21134;-79
2021/07/09 03:06:54;;;;;;;17.45;15.78;;;;;;;21.97;77.47;96554.14;1659210;85;21015;-79
2021/07/09 03:09:20;;;;;;;16.93;15.32;;;;;;;21.96;77.66;96550.39;1659846;85;21380;-81
2021/07/09 03:11:46;;;;;;;16.25;14.83;;;;;;;21.92;77.61;96550.63;1665133;85;21031;-80
2021/07/09 03:14:11;;;;;;;16.67;15.18;;;;;;;21.87;77.70;96542.92;1668412;85;20981;-80
2021/07/09 03:16:37;;;;;;;17.25;15.55;;;;;;;21.75;77.93;96540.14;1659895;85;21071;-80
2021/07/09 03:19:05;;;;;;;15.85;14.38;;;;;;;21.75;77.93;96540.14;1660734;85;21031;-80
2021/07/09 03:21:30;;;;;;;16.73;15.23;;;;;;;21.71;77.91;96544.33;1657375;85;20976;-80
2021/07/09 03:23:56;;;;;;;15.78;14.13;;;;;;;21.65;77.94;96544.81;1633605;85;21000;-80
2021/07/09 03:26:22;;;;;;;15.05;13.65;;;;;;;21.62;77.96;96545.80;1657015;85;21041;-80
2021/07/09 03:28:48;;;;;;;15.72;14.33;;;;;;;21.57;78.02;96548.67;1664181;84;21336;-80
2021/07/09 03:31:14;;;;;;;15.90;14.40;;;;;;;21.57;78.45;96538.09;1653055;85;21005;-80
2021/07/09 03:33:40;;;;;;;14.53;13.30;;;;;;;21.55;78.24;96534.11;1660309;85;20948;-80
2021/07/09 03:36:05;;;;;;;16.65;14.90;;;;;;;21.51;78.23;96535.66;1659783;85;21008;-80
2021/07/09 03:38:31;;;;;;;14.35;13.15;;;;;;;21.50;78.40;96532.21;1663918;85;20972;-80
2021/07/09 03:40:57;;;;;;;16.20;14.78;;;;;;;21.56;78.40;96533.06;1661545;85;20972;-80
2021/07/09 03:43:23;;;;;;;16.02;14.50;;;;;;;21.58;78.57;96533.61;1659414;85;21233;-80
2021/07/09 03:45:48;;;;;;;15.05;13.68;;;;;;;21.52;78.39;96537.25;1669608;85;20964;-80
2021/07/09 03:48:14;;;;;;;16.37;14.87;;;;;;;21.52;78.46;96542.53;1662058;85;21092;-79
2021/07/09 03:50:40;;;;;;;15.53;14.03;;;;;;;21.53;78.67;96544.93;1659608;85;20989;-80
2021/07/09 03:53:06;;;;;;;15.08;13.53;;;;;;;21.53;78.64;96548.90;1658988;85;21056;-80
2021/07/09 03:55:31;;;;;;;14.55;13.22;;;;;;;21.54;78.63;96547.85;1659596;85;20988;-80
2021/07/09 03:57:57;;;;;;;14.53;13.22;;;;;;;21.57;78.89;96547.35;1659733;85;21031;-79
2021/07/09 04:00:23;;;;;;;14.45;13.10;;;;;;;21.58;78.76;96544.18;1662507;85;20952;-79
2021/07/09 04:02:49;;;;;;;15.88;14.45;;;;;;;21.60;78.84;96545.25;1657256;85;21301;-80
2021/07/09 04:05:14;;;;;;;14.40;13.10;;;;;;;21.59;78.93;96547.10;1661605;85;21296;-80
2021/07/09 04:07:40;;;;;;;13.88;12.68;;;;;;;21.60;78.93;96547.38;1652116;85;21317;-80
2021/07/09 04:10:07;;;;;;;14.43;12.93;;;;;;;21.59;78.94;96548.42;1664511;85;21285;-80
2021/07/09 04:12:33;;;;;;;13.70;12.45;;;;;;;21.56;78.86;96544.43;1659152;85;20996;-80
2021/07/09 04:14:58;;;;;;;13.32;12.03;;;;;;;21.59;78.78;96551.06;1658163;85;21578;-80
2021/07/09 04:17:24;;;;;;;12.88;11.78;;;;;;;21.61;78.98;96548.97;1659725;85;20979;-79
2021/07/09 04:19:51;;;;;;;13.62;12.33;;;;;;;21.67;79.15;96546.67;1658991;85;20964;-80
2021/07/09 04:22:18;;;;;;;13.08;11.78;;;;;;;21.67;78.60;96544.03;1658956;85;20948;-80
2021/07/09 04:24:44;;;;;;;13.22;12.03;;;;;;;21.71;78.87;96544.33;1664035;85;21273;-80
2021/07/09 04:27:10;;;;;;;12.40;11.30;;;;;;;21.76;78.90;96544.38;1654647;85;21297;-80
2021/07/09 04:29:37;;;;;;;12.82;11.63;;;;;;;21.81;78.90;96551.86;1653211;85;20989;-80
2021/07/09 04:32:04;;;;;;;12.68;11.63;;;;;;;21.90;78.80;96552.72;1653658;85;21035;-79
2021/07/09 04:34:29;;;;;;;12.45;11.28;;;;;;;21.99;78.65;96559.98;1656100;85;21036;-79
2021/07/09 04:36:55;;;;;;;12.28;11.20;;;;;;;22.09;78.67;96548.18;1661571;85;21466;-79
2021/07/09 04:39:21;;;;;;;12.10;11.00;;;;;;;22.19;78.72;96554.63;1662801;85;21356;-79
2021/07/09 04:41:47;;;;;;;12.40;11.20;;;;;;;22.32;78.90;96555.55;1658023;85;20980;-80
2021/07/09 04:44:13;;;;;;;13.85;12.45;;;;;;;22.38;78.58;96543.41;1653562;85;20960;-79
2021/07/09 04:46:39;;;;;;;12.60;11.40;;;;;;;22.40;78.59;96535.22;1655948;85;21338;-79
2021/07/09 04:49:04;;;;;;;11.83;10.82;;;;;;;22.40;78.59;96535.22;1665214;85;21040;-79
2021/07/09 04:51:30;;;;;;;11.25;9.83;;;;;;;22.51;78.67;96531.61;1659459;85;20938;-80
2021/07/09 04:53:56;;;;;;;11.63;10.53;;;;;;;22.60;78.66;96538.02;1660094;85;20971;-79
2021/07/09 04:56:21;;;;;;;11.10;10.00;;;;;;;22.68;78.51;96528.29;1669483;85;21242;-79
2021/07/09 04:58:47;;;;;;;10.98;10.00;;;;;;;22.77;78.50;96531.24;1653712;85;20932;-79
2021/07/09 05:01:13;;;;;;;10.75;9.65;;;;;;;22.85;78.77;96533.98;1652744;85;20964;-80
2021/07/09 05:03:39;;;;;;;11.55;10.55;;;;;;;22.95;78.43;96530.88;1653105;85;21009;-79
2021/07/09 05:06:05;;;;;;;11.50;10.50;;;;;;;23.00;78.22;96534.88;1657479;85;20988;-80
2021/07/09 05:08:30;;;;;;;10.03;9.13;;;;;;;23.06;77.96;96538.34;1666337;85;21019;-79
2021/07/09 05:10:56;;;;;;;10.85;9.73;;;;;;;23.19;75.43;96545.84;1658093;85;21040;-79
2021/07/09 05:13:22;;;;;;;10.90;9.80;;;;;;;23.39;75.24;96554.41;1653032;85;20932;-82
2021/07/09 05:15:47;;;;;;;14.30;12.85;;;;;;;23.60;74.21;96566.75;1650521;85;21353;-81
2021/07/09 05:18:13;;;;;;;14.47;13.10;;;;;;;23.78;74.59;96576.09;1664751;85;20980;-82
2021/07/09 05:20:39;;;;;;;21.00;19.10;;;;;;;23.93;74.79;96600.02;1664603;85;20960;-81
2021/07/09 05:23:05;;;;;;;19.55;17.73;;;;;;;24.04;75.48;96604.02;1664242;85;20963;-81
2021/07/09 05:25:31;;;;;;;20.88;18.87;;;;;;;24.10;75.41;96610.95;1650176;85;20922;-82
2021/07/09 05:27:56;;;;;;;19.82;18.05;;;;;;;24.14;75.15;96617.33;1659340;85;21020;-81
2021/07/09 05:30:23;;;;;;;19.32;17.42;;;;;;;24.22;74.94;96618.13;1656631;85;21100;-81
2021/07/09 05:32:48;;;;;;;18.75;17.12;;;;;;;24.32;75.04;96620.05;1678334;85;21310;-82
2021/07/09 05:35:14;;;;;;;24.87;22.48;;;;;;;24.41;74.81;96632.55;1664524;85;21023;-81
2021/07/09 05:37:40;;;;;;;30.20;27.52;;;;;;;24.40;74.71;96636.77;1659477;85;21035;-81
2021/07/09 05:40:07;;;;;;;34.23;31.12;;;;;;;24.40;74.71;96636.77;1662128;85;20980;-81
2021/07/09 05:42:33;;;;;;;34.40;31.17;;;;;;;24.36;74.79;96652.97;1632069;85;20933;-81
2021/07/09 05:44:59;;;;;;;34.50;31.27;;;;;;;24.32;74.98;96658.02;1650364;85;20969;-81
2021/07/09 05:47:26;;;;;;;34.70;31.45;;;;;;;24.29;75.44;96665.69;1655171;85;20939;-81
2021/07/09 05:49:53;;;;;;;36.85;33.30;;;;;;;24.18;75.29;96670.16;1662471;85;20999;-82
2021/07/09 05:52:18;;;;;;;38.63;35.05;;;;;;;24.05;75.35;96669.31;1659400;85;21063;-81
2021/07/09 05:54:44;;;;;;;40.65;36.73;;;;;;;23.93;75.37;96665.57;1658372;85;20959;-82
2021/07/09 05:57:10;;;;;;;39.55;35.95;;;;;;;23.89;75.54;96666.59;1663174;85;20998;-81
2021/07/09 05:59:37;;;;;;;35.33;32.13;;;;;;;23.87;75.82;96664.73;1653764;85;20980;-82
2021/07/09 06:02:03;;;;;;;33.42;30.23;;;;;;;23.88;75.78;96657.04;1658728;85;20940;-82
2021/07/09 06:04:29;;;;;;;35.00;31.80;;;;;;;23.90;75.81;96657.58;1656883;85;20952;-81
2021/07/09 06:06:54;;;;;;;34.58;31.37;;;;;;;23.84;75.78;96663.93;1656703;85;21021;-82
2021/07/09 06:09:20;;;;;;;36.42;32.88;;;;;;;23.78;75.92;96661.00;1658367;85;21320;-82
2021/07/09 06:11:46;;;;;;;36.20;32.75;;;;;;;23.67;75.92;96652.71;1658970;85;20991;-82
2021/07/09 06:14:12;;;;;;;32.98;29.82;;;;;;;23.62;76.36;96647.39;1651540;85;20949;-81
2021/07/09 06:16:37;;;;;;;32.70;29.37;;;;;;;23.58;76.47;96643.10;1655140;85;21361;-81
2021/07/09 06:19:03;;;;;;;28.05;25.43;;;;;;;23.53;76.11;96635.09;1658345;85;21067;-82
2021/07/09 06:21:29;;;;;;;29.80;27.10;;;;;;;23.55;76.39;96630.86;1654171;85;20983;-82
2021/07/09 06:23:55;;;;;;;31.85;28.73;;;;;;;23.59;76.29;96627.98;1658239;85;21054;-82
2021/07/09 06:26:21;;;;;;;30.85;27.70;;;;;;;23.61;75.94;96628.55;1658207;85;20924;-82
2021/07/09 06:28:47;;;;;;;31.60;28.52;;;;;;;23.60;76.07;96626.42;1656977;85;21031;-80
2021/07/09 06:31:13;;;;;;;27.98;25.45;;;;;;;23.65;76.22;96625.64;1654692;85;20980;-80
2021/07/09 06:33:39;;;;;;;29.50;26.48;;;;;;;23.58;75.81;96604.64;1651613;85;21029;-81
2021/07/09 06:36:05;;;;;;;30.57;27.77;;;;;;;23.62;75.81;96612.38;1651523;85;21265;-83
2021/07/09 06:38:31;;;;;;;30.60;27.62;;;;;;;23.62;75.59;96619.01;1650846;85;20976;-82
2021/07/09 06:40:56;;;;;;;28.07;25.60;;;;;;;23.64;75.53;96616.09;1650110;85;20948;-81
2021/07/09 06:43:22;;;;;;;28.67;25.88;;;;;;;23.65;75.68;96605.75;1649666;85;20959;-81
2021/07/09 06:45:48;;;;;;;25.40;23.05;;;;;;;23.72;75.95;96592.23;1646128;85;21265;-82
2021/07/09 06:48:13;;;;;;;23.83;21.77;;;;;;;23.81;76.07;96591.48;1650496;85;21258;-82
2021/07/09 06:50:39;;;;;;;28.47;25.82;;;;;;;23.92;75.91;96579.85;1652047;85;20950;-82
2021/07/09 06:53:05;;;;;;;30.92;27.73;;;;;;;23.95;74.93;96572.69;1653197;85;20992;-81
2021/07/09 06:55:31;;;;;;;24.25;21.97;;;;;;;23.98;75.06;96562.61;1656342;85;20975;-85
2021/07/09 06:57:56;;;;;;;28.90;26.10;;;;;;;24.10;75.28;96552.55;1626403;87;21011;-79
2021/07/09 07:00:22;;;;;;;25.85;23.55;;;;;;;24.19;75.06;96545.64;1654121;85;21043;-79
2021/07/09 07:02:48;;;;;;;23.70;21.68;;;;;;;24.29;75.14;96528.44;1650838;85;20912;-79
2021/07/09 07:05:14;;;;;;;25.80;23.55;;;;;;;24.35;74.86;96524.70;1654651;85;21000;-79
2021/07/09 07:07:40;;;;;;;27.13;24.57;;;;;;;24.45;73.99;96527.38;1653610;85;21344;-79
2021/07/09 07:10:07;;;;;;;27.10;24.60;;;;;;;24.48;72.85;96526.05;1653037;85;20968;-81
2021/07/09 07:12:33;;;;;;;27.85;25.15;;;;;;;24.51;73.01;96523.64;1649367;85;20971;-81
2021/07/09 07:14:59;;;;;;;27.22;24.82;;;;;;;24.53;72.66;96524.17;1652241;85;20971;-81
2021/07/09 07:17:25;;;;;;;27.27;24.65;;;;;;;24.66;72.66;96522.04;1649622;85;21421;-81
2021/07/09 07:19:50;;;;;;;27.82;25.50;;;;;;;24.83;73.18;96520.68;1652511;85;21010;-81
2021/07/09 07:22:16;;;;;;;24.40;22.20;;;;;;;24.94;72.31;96510.84;1650403;85;20959;-81
2021/07/09 07:24:42;;;;;;;28.10;25.45;;;;;;;24.97;72.07;96505.51;1652608;85;21292;-82
2021/07/09 07:27:08;;;;;;;27.77;25.20;;;;;;;24.89;72.45;96506.84;1653651;87;21003;-81
2021/07/09 07:29:34;;;;;;;28.23;25.77;;;;;;;24.90;72.90;96511.12;1651435;85;21052;-80
2021/07/09 07:32:01;;;;;;;28.85;26.02;;;;;;;25.01;73.21;96514.02;1647390;85;20947;-79
2021/07/09 07:34:27;;;;;;;26.17;23.77;;;;;;;25.12;72.26;96506.30;1648185;85;21063;-80
2021/07/09 07:36:53;;;;;;;23.70;21.27;;;;;;;25.17;72.51;96499.36;1647490;85;21312;-79
2021/07/09 07:39:18;;;;;;;23.98;21.60;;;;;;;25.24;72.77;96494.56;1650556;85;20939;-79
2021/07/09 07:41:44;;;;;;;28.67;26.07;;;;;;;25.24;72.89;96484.72;1647261;86;21240;-80
2021/07/09 07:44:10;;;;;;;28.23;25.85;;;;;;;25.27;72.58;96490.02;1632698;86;20935;-80
2021/07/09 07:46:35;;;;;;;24.32;22.32;;;;;;;25.23;72.09;96488.45;1646696;85;20960;-80
2021/07/09 07:49:01;;;;;;;26.48;23.98;;;;;;;25.22;73.00;96483.38;1646121;86;21004;-80
2021/07/09 07:51:27;;;;;;;25.55;23.15;;;;;;;25.28;73.42;96471.13;1649398;85;20998;-82
2021/07/09 07:53:53;;;;;;;28.20;25.70;;;;;;;25.28;73.42;96471.13;1641100;85;20985;-82
2021/07/09 07:56:19;;;;;;;28.80;26.12;;;;;;;25.36;72.94;96470.55;1643162;86;21351;-82
2021/07/09 07:58:45;;;;;;;29.98;27.37;;;;;;;25.46;72.34;96475.57;1608512;87;20998;-81
2021/07/09 08:01:11;;;;;;;28.35;25.95;;;;;;;25.55;71.98;96482.72;1646460;85;21019;-82
2021/07/09 08:03:36;;;;;;;24.37;22.25;;;;;;;25.63;71.86;96478.13;1633325;86;21036;-80
2021/07/09 08:06:03;;;;;;;25.50;23.07;;;;;;;25.68;72.35;96482.65;1649136;85;20952;-80
2021/07/09 08:08:29;;;;;;;27.40;24.95;;;;;;;25.72;72.19;96480.52;1639932;86;20975;-79
2021/07/09 08:10:55;;;;;;;25.85;23.62;;;;;;;25.76;72.14;96478.09;1638834;86;21018;-80
2021/07/09 08:13:21;;;;;;;28.90;26.40;;;;;;;25.77;71.74;96476.23;1639475;86;21019;-80
2021/07/09 08:15:47;;;;;;;27.07;24.63;;;;;;;25.85;72.17;96471.64;1637710;86;21057;-79
2021/07/09 08:18:12;;;;;;;26.17;23.98;;;;;;;25.85;72.17;96471.64;1637171;86;21031;-79
2021/07/09 08:20:39;;;;;;;28.00;25.30;;;;;;;25.99;72.39;96468.61;1647200;86;21022;-79
2021/07/09 08:23:05;;;;;;;28.17;25.82;;;;;;;26.13;70.97;96470.91;1638162;86;21019;-79
2021/07/09 08:25:31;;;;;;;28.25;25.57;;;;;;;26.20;71.22;96475.39;1643487;86;21055;-80
2021/07/09 08:27:57;;;;;;;30.00;27.17;;;;;;;26.44;71.47;96473.34;1639180;86;21388;-79
2021/07/09 08:30:24;;;;;;;28.30;25.77;;;;;;;26.51;71.03;96467.14;1633543;87;21060;-79
2021/07/09 08:32:49;;;;;;;26.82;24.45;;;;;;;26.51;71.03;96467.14;1627636;86;21445;-80
2021/07/09 08:35:15;;;;;;;27.37;24.77;;;;;;;26.59;71.01;96481.99;1622807;86;21520;-82
2021/07/09 08:37:42;;;;;;;25.90;23.80;;;;;;;26.62;70.95;96483.30;1626908;88;21277;-82
2021/07/09 08:40:10;;;;;;;28.52;26.02;;;;;;;26.55;70.36;96480.97;1631803;87;20986;-79
2021/07/09 08:42:37;;;;;;;27.27;24.95;;;;;;;26.46;70.99;96483.97;1630873;86;21031;-80
2021/07/09 08:45:05;;;;;;;28.92;26.23;;;;;;;26.43;71.45;96481.08;1625688;87;21377;-82
2021/07/09 08:47:33;;;;;;;26.95;24.55;;;;;;;26.40;71.38;96488.30;1622877;86;20999;-82
2021/07/09 08:50:01;;;;;;;26.97;24.77;;;;;;;26.34;71.40;96497.63;1625994;87;21341;-81
2021/07/09 08:52:26;;;;;;;28.98;26.30;;;;;;;26.27;71.70;96499.83;1604607;88;20959;-82
2021/07/09 08:54:52;;;;;;;27.77;25.37;;;;;;;26.24;71.59;96496.39;1627963;86;21521;-82
2021/07/09 08:57:18;;;;;;;31.27;28.47;;;;;;;26.25;71.89;96502.52;1627916;86;20968;-80
2021/07/09 08:59:44;;;;;;;30.97;28.17;;;;;;;26.29;71.84;96496.88;1625874;87;20959;-80
2021/07/09 09:02:10;;;;;;;31.45;28.70;;;;;;;26.46;72.09;96512.48;1631741;86;21024;-81
2021/07/09 09:04:37;;;;;;;28.25;25.85;;;;;;;26.59;71.39;96514.51;1630692;87;21076;-80
2021/07/09 09:07:14;;;;;;;28.70;26.23;;;;;;;26.67;71.75;96517.09;1627713;86;21090;-80
2021/07/09 09:09:40;;;;;;;30.60;27.60;;;;;;;26.68;71.29;96510.14;1627744;87;21011;-80
2021/07/09 09:12:14;;;;;;;30.65;27.95;;;;;;;26.63;70.95;96504.87;1632633;86;20946;-81
2021/07/09 09:14:46;;;;;;;30.92;28.42;;;;;;;26.54;71.24;96511.36;1633324;87;20936;-80
2021/07/09 09:17:36;;;;;;;33.48;30.30;;;;;;;26.51;71.38;96515.89;1635778;87;21031;-81
2021/07/09 09:20:16;;;;;;;32.63;29.87;;;;;;;26.48;71.39;96523.12;1629329;87;21007;-81
2021/07/09 09:22:54;;;;;;;29.15;26.65;;;;;;;26.43;71.63;96528.50;1631230;86;20999;-81
2021/07/09 09:25:23;;;;;;;31.07;28.40;;;;;;;26.41;72.00;96521.86;1629269;86;20979;-81
2021/07/09 09:28:11;;;;;;;29.37;26.77;;;;;;;26.39;72.54;96514.69;1629641;86;21002;-81
2021/07/09 09:30:39;;;;;;;31.73;28.73;;;;;;;26.31;72.57;96512.84;1625980;86;21015;-82
2021/07/09 09:33:07;;;;;;;29.20;26.70;;;;;;;26.36;72.75;96512.05;1628139;87;20968;-82
2021/07/09 09:35:40;;;;;;;28.67;26.17;;;;;;;26.36;72.94;96500.06;1630053;87;21292;-81
2021/07/09 09:38:10;;;;;;;28.77;26.40;;;;;;;26.45;72.88;96501.58;1627493;86;20972;-81
2021/07/09 09:40:38;;;;;;;31.62;28.73;;;;;;;26.60;73.33;96494.78;1629477;87;20947;-81
2021/07/09 09:43:15;;;;;;;32.98;29.98;;;;;;;26.73;72.19;96487.46;1627852;86;21011;-81
2021/07/09 09:45:41;;;;;;;27.60;25.20;;;;;;;26.81;71.83;96478.83;1627837;87;20972;-82
2021/07/09 09:48:13;;;;;;;30.32;27.60;;;;;;;26.93;72.60;96465.91;1629272;87;21340;-81
2021/07/09 09:50:50;;;;;;;30.92;28.15;;;;;;;27.04;72.34;96460.50;1629523;87;21031;-82
2021/07/09 09:53:19;;;;;;;29.85;27.10;;;;;;;27.13;71.69;96449.45;1630433;86;21292;-83
2021/07/09 09:55:45;;;;;;;30.77;27.95;;;;;;;27.32;71.31;96438.26;1604039;88;21070;-82
2021/07/09 09:58:18;;;;;;;31.45;28.73;;;;;;;27.60;71.29;96443.77;1629466;86;21028;-82
2021/07/09 10:00:47;;;;;;;31.20;28.25;;;;;;;27.80;70.14;96439.48;1635098;87;20981;-81
2021/07/09 10:03:13;;;;;;;29.18;26.57;;;;;;;27.95;69.82;96435.25;1605530;88;21064;-81
2021/07/09 10:05:43;;;;;;;29.10;26.50;;;;;;;28.01;69.23;96442.12;1626761;88;21015;-81
2021/07/09 10:08:14;;;;;;;27.65;25.15;;;;;;;28.04;69.58;96446.87;1624701;87;20984;-80
2021/07/09 10:10:41;;;;;;;29.15;26.55;;;;;;;28.10;67.76;96440.89;1628043;87;20971;-82
2021/07/09 10:13:16;;;;;;;29.18;26.50;;;;;;;28.21;68.75;96453.00;1630055;87;20961;-82
2021/07/09 10:15:44;;;;;;;26.80;24.40;;;;;;;28.34;69.04;96443.48;1627377;86;21091;-82
2021/07/09 10:18:12;;;;;;;28.77;26.17;;;;;;;28.36;67.63;96438.62;1627230;87;20976;-82
2021/07/09 10:20:40;;;;;;;28.05;25.60;;;;;;;28.27;67.99;96445.72;1623962;87;21008;-82
2021/07/09 10:23:06;;;;;;;28.38;25.75;;;;;;;28.27;67.99;96438.50;1624066;87;21866;-82
2021/07/09 10:25:32;;;;;;;27.90;25.20;;;;;;;28.35;67.83;96438.38;1632873;87;21039;-82
2021/07/09 10:27:57;;;;;;;27.05;24.47;;;;;;;28.35;68.44;96446.40;1622584;87;20987;-82
2021/07/09 10:30:38;;;;;;;26.27;23.98;;;;;;;28.31;68.34;96447.53;1609753;87;21034;-80
2021/07/09 10:33:34;;;;;;;27.15;24.65;;;;;;;28.39;68.71;96436.16;1592843;88;21044;-81
2021/07/09 10:36:10;;;;;;;28.38;25.72;;;;;;;28.43;68.79;96434.23;1630290;87;21019;-81
2021/07/09 10:38:42;;;;;;;27.52;25.00;;;;;;;28.39;68.55;96437.49;1622595;88;20995;-81
2021/07/09 10:41:16;;;;;;;26.33;23.98;;;;;;;28.39;68.23;96410.77;1628371;87;21032;-80
2021/07/09 10:43:42;;;;;;;25.23;23.07;;;;;;;28.63;67.83;96419.16;1617364;87;21011;-80
2021/07/09 10:46:08;;;;;;;26.57;24.07;;;;;;;28.61;67.99;96415.44;1624603;87;21052;-81
2021/07/09 10:48:37;;;;;;;25.12;23.05;;;;;;;28.67;68.59;96415.61;1635493;86;20986;-80
2021/07/09 10:51:04;;;;;;;25.08;23.00;;;;;;;28.66;68.78;96408.68;1608542;86;21024;-80
2021/07/09 10:53:31;;;;;;;26.42;24.02;;;;;;;28.75;69.37;96409.31;1624666;87;20995;-80
2021/07/09 10:56:05;;;;;;;24.15;22.05;;;;;;;28.95;69.30;96408.39;1623118;87;21968;-80
2021/07/09 10:58:42;;;;;;;23.85;21.75;;;;;;;29.20;69.51;96404.41;1621600;87;21028;-80
2021/07/09 11:01:26;;;;;;;23.95;21.90;;;;;;;29.33;66.79;96412.17;1614772;86;20984;-81
2021/07/09 11:04:02;;;;;;;23.77;21.87;;;;;;;29.45;66.27;96417.80;1629471;87;21028;-82
2021/07/09 11:06:39;;;;;;;25.20;22.85;;;;;;;29.55;65.75;96426.16;1617962;87;21071;-82
2021/07/09 11:09:10;;;;;;;25.12;22.87;;;;;;;29.56;66.04;96431.77;1622505;87;21033;-81
2021/07/09 11:11:47;;;;;;;26.95;24.52;;;;;;;29.54;65.89;96437.97;1624667;87;20980;-81
2021/07/09 11:14:37;;;;;;;25.40;23.18;;;;;;;29.51;65.50;96440.70;1618929;87;20980;-81
2021/07/09 11:17:16;;;;;;;25.50;23.40;;;;;;;29.40;65.86;96441.19;1621209;87;21068;-81